Lecce Airport LIBN

Flugplatz Daten

Name: Lecce Airport

Ident: LIBN

Lat: 40,23920059

Long: 18,13330078

Platzhöhe: 156 ft

IataCode: LCC

City:

Metar

2021/08/05 13:55
LIBN 051355Z 25016KT CAVOK 33/22 Q1008 RMK BKN BKN200 VIS MIN 9999 WIND THR14 26016KT WIND THR32 26016KT BLU

Taf

2021/06/28 12:51
TAF TAF LIBN 281100Z 2812/2824 VRB03KT CAVOK
Gewünschte Webcam nicht vorhanden? Dann fügen Sie eine hinzu. Sie wird dann so schnell wie möglich freigeschaltet
Url: Title: